Thursday, November 15, 2018, 9:07 PM EST
Back to Local

KHPN, White Plains Westchester

Location: Greenwich, NY, United States Lat: 41.067
Local Time: 9:07 PM EST ( 2:07 GMT) Lon: -73.7
Time Zone: US/Eastern Elev: 439 ft

Show me the last for .
Show Decoded

2018-11-15 19:56 METAR KHPN 160056Z 06013G21KT 1SM R16/P6000FT -SN BR BKN008 OVC037 M02/M03 A3012
                 RMK AO2 PRESFR SLP211 P0005 T10171033 =
2018-11-15 19:42 METAR KHPN 160042Z 06012G22KT 1 1/4SM -SN BR OVC005 M02/M03 A3014 RMK AO2 P0004
                 T10171033 =
2018-11-15 18:56 METAR KHPN 152356Z AUTO 06009KT 3/4SM R16/5000VP6000FT -SN BR VV003 M02/M04
                 A3021 RMK AO2 SLP241 P0011 60049 T10221039 11011 21039 56032 =
2018-11-15 17:56 METAR KHPN 152256Z 05011G17KT 1SM R16/5500VP6000FT -SN BR VV004 M03/M05 A3022
                 RMK AO2 SLP243 P0014 T10331050 =
2018-11-15 17:44 METAR KHPN 152244Z 06010G16KT 1SM R16/5000V6000FT +SN BR VV004 M03/M05 A3023 RMK
                 AO2 P0013 T10331050 =
2018-11-15 16:56 METAR KHPN 152156Z 05007KT 1/4SM R16/2400V2800FT +SN FZFG VV001 M04/M05 A3027
                 RMK AO2 SLP263 P0019 T10391050 =
2018-11-15 16:38 METAR KHPN 152138Z 06008KT 1/2SM R16/2200V2400FT -SN FZFG VV001 M04/M05 A3029
                 RMK AO2 P0014 T10391050 =
2018-11-15 16:21 METAR KHPN 152121Z 04008KT 1/2SM R16/1800V2200FT -SN FZFG VV001 M04/M05 A3030
                 RMK AO2 P0008 T10391050 =
2018-11-15 15:56 METAR KHPN 152056Z 06009KT 1/2SM R16/2600V2800FT -SN FZFG VV001 M04/M06 A3031
                 RMK AO2 SLP275 P0005 60005 T10391056 55037 =
2018-11-15 15:54 METAR KHPN 152054Z 05006KT 1/2SM R16/2600V2800FT -SN FZFG VV001 M04/M06 A3031
                 RMK AO2 PRESRR P0005 =
2018-11-15 15:19 METAR KHPN 152019Z 06011KT 1/2SM R16/5500VP6000FT -SN FZFG OVC017 M03/M07 A3029
                 RMK AO2 P0000 T10281067 =
2018-11-15 14:56 METAR KHPN 151956Z 07012G18KT 1SM R16/P6000FT -SN BR BKN020 OVC025 M02/M08 A3030
                 RMK AO2 SNB30 SLP270 P0000 T10221078 =
2018-11-15 14:40 METAR KHPN 151940Z 07008KT 1 1/2SM -SN BKN023 OVC030 M01/M10 A3033 RMK AO2 SNB30
                 P0000 T10111100 =
2018-11-15 13:56 METAR KHPN 151856Z 06010G17KT 10SM SCT023 BKN032 OVC100 M01/M11 A3038 RMK AO2
                 SLP298 T10111106 =
2018-11-15 12:56 METAR KHPN 151756Z 06011KT 10SM SCT032 OVC100 M01/M11 A3042 RMK AO2 PRESFR
                 SLP311 T10111111 11011 21028 56042 =
2018-11-15 11:56 METAR KHPN 151656Z 06010KT 10SM SCT032 OVC110 M01/M11 A3045 RMK AO2 SLP322
                 T10111111 =
2018-11-15 10:56 METAR KHPN 151556Z 04010KT 10SM FEW040 M02/M12 A3049 RMK AO2 SLP334 T10171117 =
2018-11-15 09:56 METAR KHPN 151456Z VRB06KT 10SM FEW040 M02/M12 A3055 RMK AO2 SLP354 T10171117
                 51004 =
2018-11-15 08:56 METAR KHPN 151356Z VRB04KT 10SM CLR M02/M13 A3053 RMK AO2 SLP349 T10221128 =
2018-11-15 07:56 METAR KHPN 151256Z 03008KT 10SM CLR M03/M12 A3055 RMK AO2 SLP356 T10281122 =
2018-11-15 06:56 METAR KHPN 151156Z 03006KT 10SM CLR M03/M12 A3053 RMK AO2 SLP349 T10281122 11022
                 21028 58008 =
2018-11-15 05:56 METAR KHPN 151056Z 05003KT 10SM CLR M03/M12 A3054 RMK AO2 SLP350 T10281122 =
2018-11-15 04:56 METAR KHPN 150956Z 06003KT 10SM CLR M03/M12 A3056 RMK AO2 SLP358 T10281122 =
2018-11-15 03:56 METAR KHPN 150856Z 02004KT 10SM CLR M03/M12 A3056 RMK AO2 SLP357 T10281122 56008
                 =
2018-11-15 02:56 METAR KHPN 150756Z 35006KT 10SM CLR M03/M12 A3057 RMK AO2 SLP361 T10281122 =
2018-11-15 01:56 METAR KHPN 150656Z 05007KT 020V080 10SM CLR M03/M12 A3057 RMK AO2 SLP360
                 T10281122 =
2018-11-15 00:56 METAR KHPN 150556Z 03006KT 10SM CLR M02/M12 A3058 RMK AO2 SLP365 T10221122 10000
                 21022 53003 =
2018-11-14 23:56 METAR KHPN 150456Z 03006KT 10SM CLR M02/M12 A3056 RMK AO2 SLP358 T10221122
                 400441022 =
2018-11-14 22:56 METAR KHPN 150356Z 01007KT 10SM CLR M02/M11 A3056 RMK AO2 SLP358 T10171111 =
2018-11-14 21:56 METAR KHPN 150256Z 01006KT 10SM CLR M02/M12 A3057 RMK AO2 SLP361 T10171117 53021
                 =

Support USWX by starting your Amazon purchase here.